createdAt,value
2019-01-10T00:02:22.746Z,10.40
2019-01-10T00:04:54.766Z,9.57
2019-01-10T00:07:26.722Z,9.47
2019-01-10T00:09:58.749Z,9.20
2019-01-10T00:12:39.221Z,11.60
2019-01-10T00:15:07.974Z,11.30
2019-01-10T00:17:39.947Z,10.67
2019-01-10T00:20:12.080Z,9.00
2019-01-10T00:22:44.062Z,10.37
2019-01-10T00:25:16.057Z,9.57
2019-01-10T00:27:48.037Z,9.60
2019-01-10T00:30:20.276Z,10.70
2019-01-10T00:32:52.313Z,10.63
2019-01-10T00:35:24.293Z,11.83
2019-01-10T00:37:56.245Z,10.37
2019-01-10T00:40:28.249Z,11.17
2019-01-10T00:43:00.224Z,10.70
2019-01-10T00:45:32.198Z,10.40
2019-01-10T00:48:04.191Z,11.07
2019-01-10T00:50:36.183Z,11.60
2019-01-10T00:53:08.152Z,14.63
2019-01-10T00:55:40.146Z,13.00
2019-01-10T00:58:12.129Z,15.50
2019-01-10T01:00:44.157Z,15.90
2019-01-10T01:03:16.123Z,15.37
2019-01-10T01:05:48.128Z,11.27
2019-01-10T01:08:20.110Z,10.87
2019-01-10T01:10:52.117Z,12.47
2019-01-10T01:13:24.096Z,10.57
2019-01-10T01:15:56.119Z,12.57
2019-01-10T01:18:28.083Z,12.57
2019-01-10T01:21:00.105Z,10.57
2019-01-10T01:23:32.079Z,10.60
2019-01-10T01:26:04.113Z,13.50
2019-01-10T01:28:36.196Z,11.03
2019-01-10T01:31:08.205Z,11.90
2019-01-10T01:33:40.231Z,12.47
2019-01-10T01:36:12.209Z,12.47
2019-01-10T01:38:44.196Z,12.20
2019-01-10T01:41:16.203Z,11.47
2019-01-10T01:43:48.164Z,12.57
2019-01-10T01:46:20.161Z,12.37
2019-01-10T01:48:52.309Z,11.40
2019-01-10T01:51:24.299Z,12.87
2019-01-10T01:53:56.308Z,12.80
2019-01-10T01:56:28.262Z,14.33
2019-01-10T01:59:00.261Z,12.47
2019-01-10T02:01:32.222Z,16.87
2019-01-10T02:04:04.223Z,12.53
2019-01-10T02:06:36.177Z,13.43
2019-01-10T02:09:08.184Z,11.83
2019-01-10T02:11:40.149Z,12.90
2019-01-10T02:14:12.189Z,13.50
2019-01-10T02:16:44.170Z,13.17
2019-01-10T02:19:16.176Z,13.67
2019-01-10T02:21:48.157Z,16.57
2019-01-10T02:24:20.134Z,13.40
2019-01-10T02:26:52.095Z,14.20
2019-01-10T02:29:24.110Z,16.90
2019-01-10T02:31:56.105Z,16.33
2019-01-10T02:34:28.106Z,12.67
2019-01-10T02:37:00.052Z,14.03
2019-01-10T02:39:32.046Z,13.20
2019-01-10T02:42:04.008Z,14.97
2019-01-10T02:44:35.996Z,13.47
2019-01-10T02:47:07.952Z,12.60
2019-01-10T02:49:39.919Z,13.23
2019-01-10T02:52:11.887Z,12.63
2019-01-10T02:54:43.867Z,13.97
2019-01-10T02:57:15.820Z,13.90
2019-01-10T02:59:47.830Z,15.63
2019-01-10T03:02:19.826Z,14.00
2019-01-10T03:04:51.797Z,14.07
2019-01-10T03:07:23.789Z,13.10
2019-01-10T03:09:55.742Z,13.97
2019-01-10T03:12:27.720Z,13.50
2019-01-10T03:14:59.814Z,15.97
2019-01-10T03:17:31.800Z,13.80
2019-01-10T03:20:05.011Z,14.67
2019-01-10T03:22:37.015Z,13.00
2019-01-10T03:25:08.994Z,13.67
2019-01-10T03:27:40.973Z,12.27
2019-01-10T03:30:15.006Z,13.93
2019-01-10T03:32:47.156Z,13.50
2019-01-10T03:35:19.079Z,13.80
2019-01-10T03:37:51.066Z,13.47
2019-01-10T03:40:23.016Z,13.67
2019-01-10T03:42:55.022Z,15.33
2019-01-10T03:45:26.967Z,14.47
2019-01-10T03:47:58.962Z,14.37
2019-01-10T03:50:30.910Z,14.73
2019-01-10T03:53:02.902Z,13.07
2019-01-10T03:55:34.880Z,12.67
2019-01-10T03:58:06.873Z,14.60
2019-01-10T04:00:38.832Z,13.87
2019-01-10T04:03:10.800Z,14.17
2019-01-10T04:05:42.761Z,14.53
2019-01-10T04:08:14.733Z,14.30
2019-01-10T04:10:46.689Z,12.70
2019-01-10T04:13:18.673Z,13.30
2019-01-10T04:15:50.640Z,14.80
2019-01-10T04:18:22.642Z,15.60
2019-01-10T04:20:54.585Z,15.87
2019-01-10T04:23:26.608Z,16.87
2019-01-10T04:25:58.565Z,16.00
2019-01-10T04:28:30.594Z,17.97
2019-01-10T04:31:02.501Z,17.20
2019-01-10T04:33:34.542Z,19.43
2019-01-10T04:36:06.519Z,14.50
2019-01-10T04:38:38.505Z,16.37
2019-01-10T04:41:10.483Z,16.90
2019-01-10T04:43:42.464Z,14.80
2019-01-10T04:46:14.467Z,15.87
2019-01-10T04:48:46.458Z,15.40
2019-01-10T04:51:18.455Z,17.33
2019-01-10T04:53:50.439Z,15.93
2019-01-10T04:56:22.454Z,18.33
2019-01-10T04:58:54.428Z,19.53
2019-01-10T05:01:26.406Z,18.70
2019-01-10T05:03:58.407Z,17.90
2019-01-10T05:06:30.383Z,16.80
2019-01-10T05:09:03.814Z,19.60
2019-01-10T05:11:35.792Z,20.40
2019-01-10T05:14:16.160Z,19.43
2019-01-10T05:16:41.639Z,19.93
2019-01-10T05:19:13.625Z,17.23
2019-01-10T05:21:45.598Z,19.60
2019-01-10T05:24:17.551Z,20.40
2019-01-10T05:26:49.558Z,16.87
2019-01-10T05:29:21.520Z,20.50
2019-01-10T05:31:53.539Z,18.83
2019-01-10T05:34:25.561Z,18.60
2019-01-10T05:36:57.580Z,17.43
2019-01-10T05:39:30.638Z,19.83
2019-01-10T05:42:02.739Z,19.80
2019-01-10T05:44:34.690Z,17.57
2019-01-10T05:47:06.745Z,18.47
2019-01-10T05:49:38.733Z,22.70
2019-01-10T05:52:10.798Z,18.07
2019-01-10T05:54:42.749Z,29.70
2019-01-10T05:57:14.751Z,22.87
2019-01-10T05:59:46.824Z,24.50
2019-01-10T06:02:18.828Z,21.77
2019-01-10T06:04:50.808Z,18.70
2019-01-10T06:07:22.770Z,18.20
2019-01-10T06:09:54.804Z,25.93
2019-01-10T06:12:26.872Z,19.77
2019-01-10T06:14:58.865Z,23.00
2019-01-10T06:17:30.821Z,23.70
2019-01-10T06:20:03.574Z,19.93
2019-01-10T06:22:35.524Z,23.20
2019-01-10T06:25:07.620Z,20.93
2019-01-10T06:27:39.623Z,22.80
2019-01-10T06:30:14.364Z,23.33
2019-01-10T06:32:46.380Z,18.73
2019-01-10T06:35:18.416Z,20.50
2019-01-10T06:37:50.415Z,22.37
2019-01-10T06:40:22.512Z,23.63
2019-01-10T06:42:54.496Z,21.97
2019-01-10T06:45:26.493Z,22.97
2019-01-10T06:47:58.495Z,18.73
2019-01-10T06:50:30.481Z,19.90
2019-01-10T06:53:02.468Z,21.37
2019-01-10T06:55:34.561Z,21.97
2019-01-10T06:58:06.656Z,20.07
2019-01-10T07:00:38.664Z,22.10
2019-01-10T07:03:10.660Z,20.50
2019-01-10T07:05:42.676Z,18.17
2019-01-10T07:08:14.625Z,17.40
2019-01-10T07:10:46.629Z,22.87
2019-01-10T07:13:18.565Z,22.53
2019-01-10T07:15:50.581Z,19.23
2019-01-10T07:18:22.561Z,20.80
2019-01-10T07:20:54.551Z,20.17
2019-01-10T07:23:26.505Z,22.83
2019-01-10T07:25:58.520Z,24.97
2019-01-10T07:28:30.488Z,21.23
2019-01-10T07:31:26.206Z,21.20
2019-01-10T07:33:59.012Z,22.80
2019-01-10T07:36:32.345Z,22.60
2019-01-10T07:39:07.322Z,22.00
2019-01-10T07:41:40.727Z,22.13
2019-01-10T07:44:12.692Z,20.90
2019-01-10T07:46:47.459Z,19.83
2019-01-10T07:49:22.582Z,23.90
2019-01-10T07:51:54.626Z,19.33
2019-01-10T07:54:26.599Z,20.67
2019-01-10T07:56:58.640Z,20.03
2019-01-10T07:59:30.597Z,22.60
2019-01-10T08:02:02.585Z,21.73
2019-01-10T08:04:34.730Z,23.27
2019-01-10T08:07:06.722Z,24.80
2019-01-10T08:09:38.695Z,19.70
2019-01-10T08:12:10.686Z,22.30
2019-01-10T08:14:42.659Z,23.53
2019-01-10T08:17:16.178Z,23.30
2019-01-10T08:19:48.379Z,24.20
2019-01-10T08:22:27.694Z,22.90
2019-01-10T08:24:54.336Z,21.23
2019-01-10T08:27:26.364Z,21.20
2019-01-10T08:29:58.360Z,22.77
2019-01-10T08:32:30.340Z,20.47
2019-01-10T08:35:02.543Z,24.37
2019-01-10T08:37:34.555Z,25.37
2019-01-10T08:40:07.649Z,23.23
2019-01-10T08:42:39.599Z,21.77
2019-01-10T08:45:21.148Z,21.50
2019-01-10T08:47:45.637Z,21.73
2019-01-10T08:50:20.205Z,24.30
2019-01-10T08:52:52.191Z,21.23
2019-01-10T08:55:24.512Z,22.70
2019-01-10T08:57:56.504Z,20.83
2019-01-10T09:00:28.539Z,23.57
2019-01-10T09:03:00.531Z,21.90
2019-01-10T09:05:32.520Z,24.20
2019-01-10T09:08:04.510Z,25.07
2019-01-10T09:10:36.497Z,23.60
2019-01-10T09:13:08.452Z,24.27
2019-01-10T09:15:40.485Z,21.00
2019-01-10T09:18:12.438Z,25.57
2019-01-10T09:20:44.457Z,24.03
2019-01-10T09:23:16.439Z,24.37
2019-01-10T09:25:48.437Z,21.13
2019-01-10T09:28:20.410Z,18.50
2019-01-10T09:30:52.411Z,20.60
2019-01-10T09:33:24.409Z,22.87
2019-01-10T09:35:56.421Z,19.03
2019-01-10T09:38:28.399Z,16.43
2019-01-10T09:41:00.385Z,18.63
2019-01-10T09:43:32.366Z,16.47
2019-01-10T09:46:04.339Z,17.40
2019-01-10T09:48:36.319Z,17.90
2019-01-10T09:51:08.322Z,18.57
2019-01-10T09:53:40.309Z,15.93
2019-01-10T09:56:12.306Z,19.10
2019-01-10T09:58:44.303Z,15.70
2019-01-10T10:01:16.292Z,14.57
2019-01-10T10:03:48.266Z,13.27
2019-01-10T10:06:20.264Z,13.63
2019-01-10T10:08:52.332Z,12.73
2019-01-10T10:11:24.349Z,12.17
2019-01-10T10:13:56.357Z,12.93
2019-01-10T10:16:28.352Z,12.47
2019-01-10T10:19:00.429Z,12.40
2019-01-10T10:21:32.329Z,13.43
2019-01-10T10:24:04.325Z,13.33
2019-01-10T10:26:36.295Z,11.47
2019-01-10T10:29:08.311Z,12.57
2019-01-10T10:31:40.298Z,9.00
2019-01-10T10:34:12.345Z,10.07
2019-01-10T10:36:44.315Z,12.33
2019-01-10T10:39:16.307Z,14.10
2019-01-10T10:41:48.317Z,15.67
2019-01-10T10:44:20.341Z,13.97
2019-01-10T10:46:52.346Z,12.07
2019-01-10T10:49:24.340Z,10.17
2019-01-10T10:51:56.316Z,9.03
2019-01-10T10:54:28.309Z,9.07
2019-01-10T10:57:00.290Z,9.40
2019-01-10T10:59:32.350Z,9.43
2019-01-10T11:02:04.312Z,9.17
2019-01-10T11:04:36.292Z,10.30
2019-01-10T11:07:08.275Z,8.47
2019-01-10T11:09:40.290Z,9.50
2019-01-10T11:12:12.291Z,8.05
2019-01-10T11:14:48.201Z,7.67
2019-01-10T11:17:18.174Z,8.73
2019-01-10T11:19:51.228Z,10.73
2019-01-10T11:22:23.250Z,9.67
2019-01-10T11:24:55.261Z,9.93
2019-01-10T11:27:27.257Z,13.23
2019-01-10T11:29:59.292Z,13.07
2019-01-10T11:32:31.265Z,12.43
2019-01-10T11:35:03.626Z,12.00
2019-01-10T11:37:35.611Z,9.30
2019-01-10T11:40:09.892Z,10.53
2019-01-10T11:42:41.939Z,9.90
2019-01-10T11:45:15.761Z,9.57
2019-01-10T11:47:47.743Z,10.23
2019-01-10T11:50:19.739Z,8.63
2019-01-10T11:52:51.777Z,8.50
2019-01-10T11:55:23.787Z,8.97
2019-01-10T11:57:55.810Z,10.87
2019-01-10T12:00:29.775Z,10.53
2019-01-10T12:03:03.764Z,11.10
2019-01-10T12:05:47.294Z,10.50
2019-01-10T12:08:12.019Z,10.80
2019-01-10T12:10:44.032Z,11.33
2019-01-10T12:13:16.011Z,8.90
2019-01-10T12:15:48.019Z,8.57
2019-01-10T12:18:20.008Z,10.17
2019-01-10T12:20:52.004Z,9.17
2019-01-10T12:23:24.029Z,8.37
2019-01-10T12:25:56.025Z,9.33
2019-01-10T12:28:28.028Z,9.50
2019-01-10T12:31:00.047Z,9.33
2019-01-10T12:33:32.104Z,8.73
2019-01-10T12:36:04.130Z,8.27
2019-01-10T12:38:36.097Z,7.30
2019-01-10T12:41:08.096Z,6.67
2019-01-10T12:43:40.085Z,8.03
2019-01-10T12:46:12.088Z,8.57
2019-01-10T12:48:44.118Z,8.87
2019-01-10T12:51:16.094Z,9.80
2019-01-10T12:53:48.112Z,9.00
2019-01-10T12:56:20.101Z,11.53
2019-01-10T12:58:52.108Z,17.30
2019-01-10T13:01:24.109Z,19.90
2019-01-10T13:03:56.121Z,17.70
2019-01-10T13:06:28.109Z,20.20
2019-01-10T13:09:00.140Z,14.33
2019-01-10T13:11:32.129Z,12.50
2019-01-10T13:14:05.388Z,11.10
2019-01-10T13:16:46.515Z,10.40
2019-01-10T13:19:11.529Z,9.30
2019-01-10T13:21:43.521Z,9.13
2019-01-10T13:24:15.553Z,8.27
2019-01-10T13:26:47.557Z,10.17
2019-01-10T13:29:19.559Z,7.67
2019-01-10T13:31:51.558Z,9.20
2019-01-10T13:34:23.618Z,10.17
2019-01-10T13:36:55.600Z,7.07
2019-01-10T13:39:27.626Z,7.80
2019-01-10T13:41:59.622Z,8.30
2019-01-10T13:44:31.660Z,8.63
2019-01-10T13:47:03.911Z,8.77
2019-01-10T13:49:35.929Z,8.07
2019-01-10T13:52:07.920Z,8.13
2019-01-10T13:54:39.913Z,8.30
2019-01-10T13:57:11.892Z,8.10
2019-01-10T13:59:43.959Z,8.37
2019-01-10T14:02:15.976Z,7.60
2019-01-10T14:04:47.981Z,7.30
2019-01-10T14:07:20.013Z,7.47
2019-01-10T14:09:52.027Z,6.87
2019-01-10T14:12:24.043Z,7.50
2019-01-10T14:14:56.036Z,7.87
2019-01-10T14:17:28.067Z,8.73
2019-01-10T14:20:00.175Z,13.23
2019-01-10T14:22:32.174Z,17.80
2019-01-10T14:25:04.491Z,17.47
2019-01-10T14:27:36.525Z,12.50
2019-01-10T14:30:15.289Z,16.40
2019-01-10T14:32:47.371Z,16.70
2019-01-10T14:35:19.574Z,11.57
2019-01-10T14:37:51.574Z,12.07
2019-01-10T14:40:23.565Z,9.90
2019-01-10T14:42:55.690Z,9.60
2019-01-10T14:45:27.662Z,8.23
2019-01-10T14:48:01.935Z,7.70
2019-01-10T14:50:33.613Z,8.60
2019-01-10T14:53:05.813Z,8.60
2019-01-10T14:55:37.795Z,9.33
2019-01-10T14:58:09.813Z,9.63
2019-01-10T15:00:41.838Z,9.70
2019-01-10T15:03:13.893Z,9.30
2019-01-10T15:05:45.880Z,9.83
2019-01-10T15:08:17.922Z,10.93
2019-01-10T15:10:49.907Z,9.30
2019-01-10T15:13:21.923Z,10.53
2019-01-10T15:15:53.935Z,9.30
2019-01-10T15:18:25.966Z,9.47
2019-01-10T15:20:57.956Z,9.43
2019-01-10T15:23:29.997Z,8.93
2019-01-10T15:26:01.959Z,9.40
2019-01-10T15:28:33.982Z,9.50
2019-01-10T15:31:06.028Z,7.90
2019-01-10T15:33:38.052Z,7.87
2019-01-10T15:36:10.043Z,9.10
2019-01-10T15:38:42.058Z,7.93
2019-01-10T15:41:14.097Z,10.27
2019-01-10T15:43:46.234Z,9.13
2019-01-10T15:46:18.280Z,8.43
2019-01-10T15:48:50.288Z,7.53
2019-01-10T15:51:25.322Z,7.90
2019-01-10T15:53:57.338Z,7.13
2019-01-10T15:56:29.364Z,7.67
2019-01-10T15:59:01.373Z,8.87
2019-01-10T16:01:33.362Z,10.03
2019-01-10T16:04:07.441Z,9.50
2019-01-10T16:06:39.335Z,7.80
2019-01-10T16:09:11.352Z,7.90
2019-01-10T16:11:43.428Z,7.83
2019-01-10T16:14:15.420Z,9.37
2019-01-10T16:16:47.444Z,8.40
2019-01-10T16:19:19.432Z,8.07
2019-01-10T16:21:51.479Z,8.23
2019-01-10T16:24:23.519Z,10.40
2019-01-10T16:26:55.568Z,10.77
2019-01-10T16:29:27.579Z,11.93
2019-01-10T16:31:59.649Z,11.43
2019-01-10T16:34:31.676Z,10.97
2019-01-10T16:37:03.713Z,11.40
2019-01-10T16:39:35.740Z,11.33
2019-01-10T16:42:07.772Z,11.37
2019-01-10T16:44:39.784Z,13.40
2019-01-10T16:47:11.785Z,11.77
2019-01-10T16:49:43.873Z,12.27
2019-01-10T16:52:15.973Z,11.17
2019-01-10T16:54:47.996Z,16.17
2019-01-10T16:57:20.040Z,16.83
2019-01-10T16:59:52.084Z,13.50
2019-01-10T17:02:24.126Z,11.17
2019-01-10T17:04:56.149Z,12.77
2019-01-10T17:07:28.170Z,10.47
2019-01-10T17:10:00.247Z,10.37
2019-01-10T17:12:32.992Z,9.67
2019-01-10T17:15:05.525Z,10.03
2019-01-10T17:17:37.881Z,10.70
2019-01-10T17:20:11.929Z,11.90
2019-01-10T17:22:44.035Z,12.63
2019-01-10T17:25:16.720Z,12.17
2019-01-10T17:27:48.805Z,12.33
2019-01-10T17:30:22.948Z,13.43
2019-01-10T17:32:55.059Z,14.13
2019-01-10T17:35:29.443Z,12.67
2019-01-10T17:38:02.007Z,12.03
2019-01-10T17:40:34.071Z,13.23
2019-01-10T17:43:06.110Z,13.20
2019-01-10T17:45:38.387Z,12.87
2019-01-10T17:48:10.850Z,12.33
2019-01-10T17:50:42.918Z,12.87
2019-01-10T17:53:15.008Z,9.90
2019-01-10T17:55:47.061Z,9.93
2019-01-10T17:58:19.053Z,11.73
2019-01-10T18:00:51.182Z,11.67
2019-01-10T18:03:23.207Z,11.67
2019-01-10T18:05:55.269Z,10.70
2019-01-10T18:08:27.331Z,25.07
2019-01-10T18:10:59.382Z,106.30
2019-01-10T18:13:31.452Z,42.17
2019-01-10T18:16:03.496Z,19.60
2019-01-10T18:18:35.631Z,12.13
2019-01-10T18:21:07.682Z,12.63
2019-01-10T18:23:39.758Z,11.50
2019-01-10T18:26:11.831Z,11.87
2019-01-10T18:28:43.872Z,11.90
2019-01-10T18:31:15.960Z,14.10
2019-01-10T18:33:48.093Z,11.13
2019-01-10T18:36:20.208Z,10.40
2019-01-10T18:38:52.334Z,10.27
2019-01-10T18:41:24.323Z,10.63
2019-01-10T18:43:56.406Z,13.07
2019-01-10T18:46:28.465Z,12.40
2019-01-10T18:49:00.644Z,11.60
2019-01-10T18:51:32.668Z,13.00
2019-01-10T18:54:04.783Z,13.10
2019-01-10T18:56:36.999Z,13.50
2019-01-10T18:59:09.126Z,15.90
2019-01-10T19:01:41.221Z,19.80
2019-01-10T19:04:13.304Z,18.27
2019-01-10T19:06:45.397Z,19.53
2019-01-10T19:09:17.504Z,18.43
2019-01-10T19:11:49.648Z,18.47
2019-01-10T19:14:21.723Z,22.23
2019-01-10T19:16:53.794Z,17.87
2019-01-10T19:19:25.890Z,18.20
2019-01-10T19:21:57.962Z,21.33
2019-01-10T19:24:31.493Z,17.97
2019-01-10T19:27:03.628Z,22.30
2019-01-10T19:29:35.765Z,30.03
2019-01-10T19:32:07.838Z,52.53
2019-01-10T19:34:40.018Z,47.20
2019-01-10T19:37:12.130Z,25.73
2019-01-10T19:39:44.199Z,20.30
2019-01-10T19:42:16.378Z,18.40
2019-01-10T19:44:48.476Z,23.60
2019-01-10T19:47:20.629Z,16.60
2019-01-10T19:49:58.288Z,21.33
2019-01-10T19:52:26.663Z,14.90
2019-01-10T19:54:58.714Z,14.63
2019-01-10T19:57:30.793Z,15.97
2019-01-10T20:00:04.279Z,15.93
2019-01-10T20:02:36.424Z,15.27
2019-01-10T20:05:08.547Z,16.83
2019-01-10T20:07:40.600Z,15.70
2019-01-10T20:10:12.852Z,15.20
2019-01-10T20:12:44.978Z,16.27
2019-01-10T20:15:17.074Z,18.77
2019-01-10T20:17:49.176Z,17.60
2019-01-10T20:20:27.568Z,24.60
2019-01-10T20:23:00.020Z,19.47
2019-01-10T20:25:32.116Z,15.67
2019-01-10T20:28:04.557Z,15.00
2019-01-10T20:30:36.754Z,14.33
2019-01-10T20:33:08.993Z,15.13
2019-01-10T20:35:41.129Z,14.80
2019-01-10T20:38:13.423Z,13.53
2019-01-10T20:40:46.735Z,13.07
2019-01-10T20:43:18.991Z,14.40
2019-01-10T20:45:51.099Z,15.03
2019-01-10T20:48:23.227Z,16.67
2019-01-10T20:50:55.291Z,17.47
2019-01-10T20:53:27.299Z,16.93
2019-01-10T20:55:59.388Z,14.97
2019-01-10T20:58:31.412Z,22.57
2019-01-10T21:01:03.565Z,25.17
2019-01-10T21:03:35.685Z,23.43
2019-01-10T21:06:09.626Z,68.50
2019-01-10T21:08:41.666Z,32.17
2019-01-10T21:11:13.753Z,17.90
2019-01-10T21:13:45.800Z,16.83
2019-01-10T21:16:17.862Z,15.23
2019-01-10T21:18:49.914Z,14.80
2019-01-10T21:21:21.985Z,15.67
2019-01-10T21:23:54.044Z,16.20
2019-01-10T21:26:26.191Z,14.70
2019-01-10T21:28:58.233Z,12.70
2019-01-10T21:31:30.331Z,13.03
2019-01-10T21:34:02.390Z,12.10
2019-01-10T21:36:34.430Z,13.00
2019-01-10T21:39:06.889Z,10.93
2019-01-10T21:41:38.975Z,11.23
2019-01-10T21:44:11.061Z,11.47
2019-01-10T21:46:43.187Z,13.30
2019-01-10T21:49:15.195Z,13.40
2019-01-10T21:51:47.583Z,11.90
2019-01-10T21:54:19.976Z,12.57
2019-01-10T21:56:52.117Z,15.87
2019-01-10T21:59:24.302Z,20.07
2019-01-10T22:01:56.476Z,15.37
2019-01-10T22:04:28.517Z,12.60
2019-01-10T22:07:00.755Z,13.23
2019-01-10T22:09:33.014Z,14.37
2019-01-10T22:12:05.131Z,14.83
2019-01-10T22:14:37.415Z,14.80
2019-01-10T22:17:09.539Z,15.10
2019-01-10T22:19:41.839Z,14.40
2019-01-10T22:22:13.911Z,13.50
2019-01-10T22:24:46.023Z,11.67
2019-01-10T22:27:18.136Z,12.17
2019-01-10T22:29:50.182Z,12.63
2019-01-10T22:32:22.195Z,11.40
2019-01-10T22:34:54.248Z,10.70
2019-01-10T22:37:29.076Z,10.50
2019-01-10T22:40:00.203Z,9.17
2019-01-10T22:42:32.159Z,11.47
2019-01-10T22:45:04.573Z,11.90
2019-01-10T22:47:36.573Z,13.63
2019-01-10T22:50:10.018Z,12.00
2019-01-10T22:52:41.980Z,12.37
2019-01-10T22:55:14.069Z,14.57
2019-01-10T22:57:46.087Z,13.47
2019-01-10T23:01:08.985Z,12.33
2019-01-10T23:03:41.758Z,12.17
2019-01-10T23:06:13.777Z,14.20
2019-01-10T23:08:46.068Z,14.63
2019-01-10T23:11:19.822Z,14.10
2019-01-10T23:13:56.463Z,13.10
2019-01-10T23:16:29.571Z,12.77
2019-01-10T23:19:01.562Z,11.63
2019-01-10T23:21:40.898Z,11.97
2019-01-10T23:24:17.109Z,11.70
2019-01-10T23:26:53.536Z,13.03
2019-01-10T23:29:31.394Z,11.57
2019-01-10T23:32:11.677Z,12.20
2019-01-10T23:34:48.176Z,11.53
2019-01-10T23:37:21.650Z,11.57
2019-01-10T23:39:54.492Z,12.00
2019-01-10T23:42:26.488Z,10.63
2019-01-10T23:44:58.462Z,10.90
2019-01-10T23:47:30.458Z,13.73
2019-01-10T23:50:02.537Z,19.40
2019-01-10T23:52:34.559Z,13.60
2019-01-10T23:55:06.515Z,13.03
2019-01-10T23:57:38.514Z,13.70
